Share

Maputo, Mozambique

2:12 PM CAT on April 24, 2014 (GMT +0200)
Maputo (FQMA) Elev 144 ft | 25.92 °S, 32.57 °E | Change Station

Current weather conditions updated 12 minutes ago

Scattered Clouds
Scattered Clouds
84 °F
Feels Like 88 °F
N
10
Wind Variable Wind from NNE
Sunrise 6:09 AM
Sunset 5:25 PM
Moon Waning Crescent

Today is forecast to be nearly the same temperature as yesterday. Scattered thunderstorms possible tonight.

Pressure 29.83 in
Visibility 6.2 miles
Clouds Scattered Clouds 2000 ft
Heat Index 88 °F
Dew Point 70 °F
Humidity 62%
Rainfall 0.00 in
Snow Depth Not available.
UV 5 out of 16
Pollen Not available.
Air Quality Not available.
Flu Activity Not available.
METAR FQMA 241200Z 02009KT 9999 SCT020 29/21 Q1010 NOSIG

More Conditions Fewer Conditions

Pressure 29.83 in
Visibility 6.2 miles
Clouds Scattered Clouds 2000 ft
Heat Index 88 °F
Dew Point 70 °F
Humidity 62%
Rainfall 0.00 in
Snow Depth Not available.
UV 5 out of 16
Pollen Not available.
Air Quality Not available.
Flu Activity Not available.
METAR FQMA 241200Z 02009KT 9999 SCT020 29/21 Q1010 NOSIG

More Conditions Fewer Conditions

10-Day Weather Forecast

Almanac

Astronomy

Apr. 24, 2014 Rise Set
Actual Time 6:09 AM CAT 5:25 PM CAT
Civil Twilight 5:45 AM CAT 5:49 PM CAT
Nautical Twilight 5:18 AM CAT 6:16 PM CAT
Astronomical Twilight 4:51 AM CAT 6:43 PM CAT
Moon 1:10 AM CAT 2:05 PM CAT
Length of Visible Light 12h 03m
Length of Day
11h 16m
Tomorrow will be 1m 20s shorter.
Waning Crescent, 26% of the Moon is Illuminated
Today
Waning Crescent
Apr 29
New
May 6
First Quarter
May 14
Full
May 21
Last Quarter

Yesterday's Extremes

Country Highs Country Lows

Community

  • Stacked
    Stacked
  • clouds approaching Red Sox Nation
    clouds approaching Red Sox Nation
  • Balance
    Balance
  • Nestled In
    Nestled In
  • Stunning Sunrise
    Stunning Sunrise

WunderPhotos

Upload Photos

1,704,591 photos uploaded!

WunderBlogs® & News

Nearby

Snow Depth

Not available.

Coastal Water Temperatures

Place Temperature
No Stations Reporting

Earthquake Activity

City Distance Mag. Time & Date
No recent earthquake activity has been reported nearby.
Minimum magnitude displayed is 2.5.

Nearby Weather Stations

There are no personal weather stations in this area.

What do you think?

We're not finished. Please let us know what you like, what you don't like, and what you are still missing.